Luray, Virginia
Current Conditions -  °F | °C
As of 8:35 AM on Thursday 23 Oct 2014 (Local Time) from KLUA Reporting Station
Broken Clouds Broken Clouds  
Wind Chill: 54°   Ceiling: 9500
Heat Index: 54°   Visibility: 10mi
Dew Point: 43°   Wind: 15mph
Humidity: 67%   Direction: 320°NW
Pressure: 30"   Gusts: 25mph
Location:  38.67°N, 78.46°W
Report Text: KLUA 231235Z AUTO 32013G22KT 10SM SCT070 BKN095 12/06 A3000 RMK AO2
Loading
Personal Weather Stations






























Interactive Weather Map
Tropical Storm Tracking
New forecast layout! Learn more

10-Day Weather Forecast

Advertisements
Track Severe Weather on mobile